Time;durP1;ratioP1;P1;durP2;ratioP2;P2;SDS_P1;SDS_P2;PMS_P1;PMS_P2;Temp;Humidity;BMP_temperature;BMP_pressure;BME280_temperature;BME280_humidity;BME280_pressure;Samples;Min_cycle;Max_cycle;Signal;HPM_P1;HPM_P2
2023/03/24 00:00:13;;;;;;;13.75;7.65;;;;;;;9.13;100.00;98479.81;4484443;31;20084;-65
2023/03/24 00:02:42;;;;;;;14.48;7.93;;;;;;;9.06;100.00;98480.34;4484808;32;20089;-65
2023/03/24 00:05:11;;;;;;;14.52;7.95;;;;;;;9.05;100.00;98480.50;4484553;32;20148;-65
2023/03/24 00:07:39;;;;;;;15.18;8.10;;;;;;;8.99;100.00;98467.97;4485461;32;20156;-65
2023/03/24 00:10:09;;;;;;;13.15;8.48;;;;;;;8.94;100.00;98468.37;4486144;31;20183;-65
2023/03/24 00:12:37;;;;;;;16.02;8.65;;;;;;;8.98;100.00;98468.94;4486272;31;20096;-65
2023/03/24 00:15:07;;;;;;;15.70;8.65;;;;;;;9.14;100.00;98468.41;4485607;32;20118;-65
2023/03/24 00:17:35;;;;;;;13.05;8.13;;;;;;;9.18;100.00;98464.56;4486408;31;20107;-65
2023/03/24 00:20:13;;;;;;;16.12;8.45;;;;;;;9.16;100.00;98461.25;4486089;31;20116;-65
2023/03/24 00:22:48;;;;;;;13.40;8.02;;;;;;;9.15;100.00;98470.06;4486658;31;20097;-65
2023/03/24 00:25:17;;;;;;;13.73;8.18;;;;;;;9.11;100.00;98466.06;4485942;31;20092;-65
2023/03/24 00:27:47;;;;;;;11.88;7.50;;;;;;;9.02;100.00;98460.72;4486188;31;20148;-65
2023/03/24 00:30:16;;;;;;;17.75;7.80;;;;;;;8.97;100.00;98462.06;4486288;31;20142;-65
2023/03/24 00:32:45;;;;;;;14.50;8.30;;;;;;;8.89;100.00;98465.34;4486335;32;20093;-65
2023/03/24 00:35:15;;;;;;;13.27;8.00;;;;;;;8.84;100.00;98459.69;4486021;31;20100;-65
2023/03/24 00:37:43;;;;;;;18.20;8.48;;;;;;;8.77;100.00;98458.59;4486139;31;20507;-65
2023/03/24 00:40:15;;;;;;;16.60;8.60;;;;;;;8.72;100.00;98447.69;4485787;31;20123;-65
2023/03/24 00:42:44;;;;;;;15.40;8.40;;;;;;;8.73;100.00;98450.16;4486193;32;20781;-65
2023/03/24 00:45:18;;;;;;;15.23;8.15;;;;;;;8.80;100.00;98442.66;4485906;31;20617;-65
2023/03/24 00:47:48;;;;;;;14.68;8.57;;;;;;;8.98;100.00;98438.41;4486092;31;20081;-65
2023/03/24 00:50:19;;;;;;;16.00;8.68;;;;;;;9.11;100.00;98432.91;4485833;31;20096;-65
2023/03/24 00:52:47;;;;;;;12.68;8.50;;;;;;;9.23;100.00;98421.41;4486294;31;20085;-65
2023/03/24 00:55:16;;;;;;;13.80;8.90;;;;;;;9.34;100.00;98425.66;4485903;32;20087;-65
2023/03/24 00:57:51;;;;;;;15.98;9.05;;;;;;;9.50;98.98;98422.47;4485973;31;20093;-65
2023/03/24 01:00:22;;;;;;;16.48;9.23;;;;;;;9.70;97.37;98415.44;4486350;31;20095;-65
2023/03/24 01:02:54;;;;;;;16.60;9.43;;;;;;;9.81;96.67;98413.63;4486054;31;20122;-65
2023/03/24 01:05:26;;;;;;;17.40;9.23;;;;;;;9.80;96.88;98409.38;4485781;31;20088;-65
2023/03/24 01:08:02;;;;;;;19.87;10.25;;;;;;;9.89;96.19;98417.19;4486231;31;20115;-65
2023/03/24 01:10:41;;;;;;;14.23;9.15;;;;;;;9.94;95.24;98414.16;4485735;31;20116;-65
2023/03/24 01:13:09;;;;;;;15.00;8.68;;;;;;;9.94;94.96;98408.91;4485964;31;20111;-65
2023/03/24 01:15:37;;;;;;;13.32;8.07;;;;;;;9.95;94.97;98405.34;4469932;32;20091;-65
2023/03/24 01:18:05;;;;;;;19.55;9.18;;;;;;;10.04;94.43;98394.00;4469926;32;20089;-65
2023/03/24 01:20:32;;;;;;;19.65;9.38;;;;;;;10.17;93.82;98392.87;4470214;32;20443;-65
2023/03/24 01:23:03;;;;;;;19.33;9.70;;;;;;;10.24;93.02;98386.09;4470240;32;20104;-65
2023/03/24 01:25:31;;;;;;;22.10;9.50;;;;;;;10.11;93.62;98387.25;4469885;32;20145;-65
2023/03/24 01:27:58;;;;;;;17.10;9.90;;;;;;;10.07;94.07;98388.50;4470429;32;20115;-65
2023/03/24 01:30:27;;;;;;;18.67;9.57;;;;;;;9.94;95.16;98383.56;4469927;32;20101;-65
2023/03/24 01:32:55;;;;;;;19.15;10.35;;;;;;;9.81;96.21;98383.06;4470043;32;20109;-65
2023/03/24 01:35:24;;;;;;;20.25;10.38;;;;;;;9.72;96.84;98378.66;4469937;32;20096;-65
2023/03/24 01:37:56;;;;;;;18.17;9.43;;;;;;;9.69;97.19;98374.56;4470219;32;20394;-65
2023/03/24 01:40:26;;;;;;;17.83;9.50;;;;;;;9.83;95.49;98375.09;4469958;32;20164;-65
2023/03/24 01:42:54;;;;;;;19.10;11.32;;;;;;;9.86;95.12;98375.63;4470376;32;20088;-65
2023/03/24 01:45:59;;;;;;;14.20;9.48;;;;;;;9.88;94.80;98375.47;4469787;32;20119;-65
2023/03/24 01:48:34;;;;;;;22.85;8.80;;;;;;;9.93;94.34;98373.25;4470008;32;20107;-65
2023/03/24 01:51:33;;;;;;;17.80;9.23;;;;;;;9.91;94.08;98372.56;4468637;32;20450;-65
2023/03/24 01:54:08;;;;;;;15.88;8.88;;;;;;;10.00;93.25;98371.72;4470010;32;20444;-65
2023/03/24 01:56:39;;;;;;;17.65;9.57;;;;;;;10.02;92.92;98369.78;4468330;32;20091;-65
2023/03/24 01:59:10;;;;;;;15.20;8.98;;;;;;;10.00;93.33;98376.94;4470027;32;20073;-65
2023/03/24 02:01:38;;;;;;;20.27;8.80;;;;;;;9.89;93.63;98372.72;4468939;32;20506;-65
2023/03/24 02:04:06;;;;;;;18.77;9.48;;;;;;;9.80;94.12;98375.38;4470160;32;20489;-65
2023/03/24 02:06:39;;;;;;;15.73;9.15;;;;;;;9.81;94.34;98361.31;4470100;32;20084;-65
2023/03/24 02:09:08;;;;;;;16.83;9.30;;;;;;;9.77;94.17;98364.19;4469989;32;20097;-65
2023/03/24 02:11:36;;;;;;;19.45;9.40;;;;;;;9.73;94.21;98356.78;4477848;32;20124;-65
2023/03/24 02:14:06;;;;;;;21.17;10.18;;;;;;;9.63;95.29;98359.44;4485413;31;20112;-65
2023/03/24 02:16:45;;;;;;;17.85;10.07;;;;;;;9.50;96.73;98358.91;4485353;31;20084;-65
2023/03/24 02:19:13;;;;;;;20.88;9.95;;;;;;;9.49;97.50;98359.84;4485377;31;20096;-65
2023/03/24 02:21:47;;;;;;;16.60;9.77;;;;;;;9.43;97.99;98355.19;4485575;31;20154;-65
2023/03/24 02:24:40;;;;;;;16.77;9.93;;;;;;;9.26;99.87;98351.50;4485851;31;20100;-65
2023/03/24 02:27:40;;;;;;;17.80;9.85;;;;;;;9.08;100.00;98354.81;4485355;31;20401;-65
2023/03/24 02:30:22;;;;;;;17.50;9.70;;;;;;;9.05;100.00;98361.16;4484548;31;20575;-65
2023/03/24 02:33:16;;;;;;;19.67;10.32;;;;;;;8.96;100.00;98358.50;4485365;31;20446;-65
2023/03/24 02:36:03;;;;;;;16.50;9.45;;;;;;;9.05;100.00;98360.31;4485419;32;20454;-65
2023/03/24 02:38:34;;;;;;;21.17;10.35;;;;;;;8.98;100.00;98357.44;4485395;31;20085;-65
2023/03/24 02:41:25;;;;;;;15.32;9.55;;;;;;;8.83;100.00;98364.84;4485413;32;20438;-65
2023/03/24 02:44:02;;;;;;;15.30;9.38;;;;;;;8.84;100.00;98360.44;4485664;31;20096;-65
2023/03/24 02:46:44;;;;;;;15.25;9.73;;;;;;;8.82;100.00;98362.34;4485441;31;20083;-65
2023/03/24 02:49:28;;;;;;;18.37;9.48;;;;;;;8.68;100.00;98350.53;4485038;32;20106;-65
2023/03/24 02:51:57;;;;;;;20.52;9.82;;;;;;;8.67;100.00;98347.06;4484001;32;20099;-65
2023/03/24 02:54:34;;;;;;;18.95;9.40;;;;;;;8.66;100.00;98340.22;4484071;32;20104;-65
2023/03/24 02:57:05;;;;;;;16.90;9.52;;;;;;;8.61;100.00;98331.13;4485395;31;20125;-65
2023/03/24 02:59:38;;;;;;;18.42;9.20;;;;;;;8.62;100.00;98332.78;4484196;32;20084;-65
2023/03/24 03:02:11;;;;;;;16.35;9.88;;;;;;;8.68;100.00;98330.44;4485157;31;20159;-65
2023/03/24 03:04:49;;;;;;;17.20;10.10;;;;;;;8.65;100.00;98328.12;4484002;32;20127;-65
2023/03/24 03:07:20;;;;;;;21.37;10.13;;;;;;;8.56;100.00;98317.66;4483848;32;20145;-65
2023/03/24 03:09:56;;;;;;;18.80;10.18;;;;;;;8.48;100.00;98315.75;4483863;32;20115;-65
2023/03/24 03:12:26;;;;;;;17.00;9.95;;;;;;;8.53;100.00;98318.75;4483835;32;20568;-65
2023/03/24 03:14:59;;;;;;;17.95;11.23;;;;;;;8.61;100.00;98324.13;4483738;32;20100;-65
2023/03/24 03:17:30;;;;;;;17.40;10.18;;;;;;;8.60;100.00;98327.69;4483674;32;20528;-65
2023/03/24 03:20:04;;;;;;;18.37;10.70;;;;;;;8.61;100.00;98334.56;4483697;32;20097;-65
2023/03/24 03:22:38;;;;;;;18.77;10.20;;;;;;;8.57;100.00;98325.38;4483775;32;20089;-65
2023/03/24 03:25:06;;;;;;;21.42;11.50;;;;;;;8.49;100.00;98315.59;4484056;32;20127;-65
2023/03/24 03:27:37;;;;;;;25.45;11.65;;;;;;;8.37;100.00;98318.41;4483350;32;20138;-65
2023/03/24 03:30:09;;;;;;;24.15;11.98;;;;;;;8.25;100.00;98315.94;4483819;32;20142;-65
2023/03/24 03:32:42;;;;;;;21.33;11.88;;;;;;;8.24;100.00;98313.47;4483437;32;20585;-65
2023/03/24 03:35:13;;;;;;;26.65;13.65;;;;;;;8.19;100.00;98319.06;4483657;32;20093;-65
2023/03/24 03:37:47;;;;;;;20.83;12.50;;;;;;;8.15;100.00;98323.72;4484706;31;20072;-65
2023/03/24 03:40:20;;;;;;;21.98;11.70;;;;;;;8.10;100.00;98319.84;4484624;31;20091;-65
2023/03/24 03:42:48;;;;;;;21.50;12.40;;;;;;;8.06;100.00;98323.69;4484795;31;20080;-65
2023/03/24 03:45:16;;;;;;;21.35;11.77;;;;;;;7.99;100.00;98320.78;4484661;31;20084;-65
2023/03/24 03:47:44;;;;;;;20.70;13.25;;;;;;;7.92;100.00;98320.50;4483495;32;20108;-65
2023/03/24 03:50:12;;;;;;;21.52;12.35;;;;;;;7.99;100.00;98318.16;4484753;31;20461;-65
2023/03/24 03:52:40;;;;;;;26.30;12.70;;;;;;;8.03;100.00;98316.13;4484545;31;20673;-65
2023/03/24 03:55:08;;;;;;;24.95;13.02;;;;;;;8.01;100.00;98311.06;4483401;32;20127;-65
2023/03/24 03:57:35;;;;;;;24.75;14.00;;;;;;;7.95;100.00;98314.19;4483341;32;20101;-65
2023/03/24 04:00:06;;;;;;;25.92;13.20;;;;;;;7.93;100.00;98316.09;4483394;32;20651;-65
2023/03/24 04:03:09;;;;;;;23.90;13.35;;;;;;;7.84;100.00;98316.87;4484471;31;20155;-65
2023/03/24 04:05:46;;;;;;;27.83;13.40;;;;;;;7.75;100.00;98310.66;4484601;31;20088;-65
2023/03/24 04:08:24;;;;;;;22.25;12.98;;;;;;;7.72;100.00;98308.31;4483299;32;20160;-65
2023/03/24 04:10:59;;;;;;;24.65;12.82;;;;;;;7.70;100.00;98303.22;4483239;32;20096;-65
2023/03/24 04:13:38;;;;;;;28.92;14.32;;;;;;;7.64;100.00;98296.78;4484456;31;20084;-65
2023/03/24 04:16:17;;;;;;;26.75;13.62;;;;;;;7.62;100.00;98314.31;4484363;32;20085;-65
2023/03/24 04:19:20;;;;;;;24.50;13.60;;;;;;;7.62;100.00;98314.31;4484348;31;20099;-65
2023/03/24 04:22:25;;;;;;;23.10;13.00;;;;;;;7.64;100.00;98314.19;4484226;31;20363;-65
2023/03/24 04:24:58;;;;;;;20.23;12.40;;;;;;;7.65;100.00;98308.00;4484381;31;20128;-67
2023/03/24 04:27:37;;;;;;;28.08;13.90;;;;;;;7.60;100.00;98300.59;4484196;31;20544;-67
2023/03/24 04:30:05;;;;;;;29.95;14.32;;;;;;;7.65;100.00;98308.00;4484277;31;20088;-67
2023/03/24 04:32:45;;;;;;;23.60;14.50;;;;;;;7.63;100.00;98297.72;4484040;31;20093;-67
2023/03/24 04:35:30;;;;;;;30.92;14.73;;;;;;;7.57;100.00;98295.63;4484205;31;20119;-67
2023/03/24 04:38:03;;;;;;;26.60;14.50;;;;;;;7.57;100.00;98303.44;4484240;31;20142;-67
2023/03/24 04:40:35;;;;;;;27.00;15.88;;;;;;;7.56;100.00;98308.78;4482982;32;20142;-67
2023/03/24 04:43:04;;;;;;;25.45;14.75;;;;;;;7.53;100.00;98309.06;4482872;32;20461;-67
2023/03/24 04:45:32;;;;;;;25.12;15.02;;;;;;;7.49;100.00;98312.88;4482456;32;20092;-67
2023/03/24 04:48:02;;;;;;;30.80;15.32;;;;;;;7.47;100.00;98313.00;4482629;32;20112;-67
2023/03/24 04:50:35;;;;;;;29.42;14.87;;;;;;;7.42;100.00;98315.19;4482657;32;20108;-67
2023/03/24 04:53:07;;;;;;;23.10;14.57;;;;;;;7.38;100.00;98316.37;4484583;31;20092;-67
2023/03/24 04:55:56;;;;;;;26.17;15.50;;;;;;;7.37;100.00;98318.13;4484591;32;20157;-67
2023/03/24 04:58:25;;;;;;;30.90;15.77;;;;;;;7.50;100.00;98309.31;4484869;32;20108;-67
2023/03/24 05:00:54;;;;;;;23.23;14.65;;;;;;;7.61;100.00;98310.03;4484600;32;20163;-67
2023/03/24 05:03:22;;;;;;;28.15;14.68;;;;;;;7.49;100.00;98318.06;4485935;31;20085;-67
2023/03/24 05:05:50;;;;;;;26.90;14.82;;;;;;;7.35;100.00;98324.44;4486050;31;20482;-67
2023/03/24 05:08:18;;;;;;;24.25;14.45;;;;;;;7.33;100.00;98328.94;4485839;31;20172;-67
2023/03/24 05:10:46;;;;;;;22.70;13.98;;;;;;;7.42;100.00;98334.22;4480953;32;164419;-68
2023/03/24 05:13:14;;;;;;;22.90;13.43;;;;;;;7.43;100.00;98330.69;4485978;31;20468;-68
2023/03/24 05:15:42;;;;;;;34.28;16.23;;;;;;;7.52;100.00;98339.50;4485850;31;20081;-68
2023/03/24 05:18:12;;;;;;;25.33;14.73;;;;;;;7.47;100.00;98329.44;4486167;31;20553;-68
2023/03/24 05:20:40;;;;;;;26.62;15.88;;;;;;;7.49;100.00;98324.09;4486021;31;20163;-67
2023/03/24 05:23:07;;;;;;;28.33;15.55;;;;;;;7.66;100.00;98329.69;4485953;31;20123;-67
2023/03/24 05:25:35;;;;;;;32.75;15.35;;;;;;;7.64;100.00;98332.44;4485753;32;20093;-67
2023/03/24 05:28:03;;;;;;;31.67;15.68;;;;;;;7.73;100.00;98333.44;4485588;31;20097;-67
2023/03/24 05:30:31;;;;;;;23.73;14.82;;;;;;;7.83;100.00;98329.09;4482869;31;20492;-68
2023/03/24 05:32:58;;;;;;;28.90;15.68;;;;;;;7.92;100.00;98322.28;4484677;31;20401;-67
2023/03/24 05:35:25;;;;;;;26.25;14.07;;;;;;;8.02;100.00;98330.13;4484403;31;20092;-68
2023/03/24 05:37:53;;;;;;;29.87;14.65;;;;;;;8.18;100.00;98325.25;4483141;31;20116;-67
2023/03/24 05:40:21;;;;;;;24.45;13.82;;;;;;;8.27;100.00;98342.72;4482600;31;20095;-68
2023/03/24 05:42:49;;;;;;;29.73;14.98;;;;;;;8.33;100.00;98339.56;4484095;32;20590;-68
2023/03/24 05:45:17;;;;;;;27.00;13.80;;;;;;;8.45;100.00;98332.47;4483410;31;20119;-67
2023/03/24 05:47:45;;;;;;;27.73;14.57;;;;;;;8.62;100.00;98340.63;4484755;31;20155;-68
2023/03/24 05:50:13;;;;;;;30.48;14.18;;;;;;;8.74;100.00;98342.16;4483406;31;20126;-68
2023/03/24 05:52:42;;;;;;;29.92;14.77;;;;;;;8.85;100.00;98349.03;4484837;31;20101;-66
2023/03/24 05:55:10;;;;;;;23.85;14.27;;;;;;;8.98;100.00;98346.97;4484836;31;20106;-68
2023/03/24 05:57:38;;;;;;;30.20;14.25;;;;;;;9.19;100.00;98348.59;4485340;31;20104;-68
2023/03/24 06:00:14;;;;;;;31.67;15.15;;;;;;;9.27;100.00;98347.94;4479851;31;20163;-68
2023/03/24 06:02:44;;;;;;;26.33;14.45;;;;;;;9.44;100.00;98351.62;4477950;31;20548;-68
2023/03/24 06:05:12;;;;;;;33.83;13.65;;;;;;;9.51;100.00;98350.09;4483185;31;20123;-67
2023/03/24 06:07:41;;;;;;;33.28;13.30;;;;;;;9.67;99.32;98354.72;4482233;31;20116;-67
2023/03/24 06:10:10;;;;;;;46.17;14.32;;;;;;;9.87;98.79;98347.66;4482554;32;20092;-68
2023/03/24 06:12:38;;;;;;;55.83;14.60;;;;;;;9.96;97.04;98354.63;4481295;31;20108;-68
2023/03/24 06:15:06;;;;;;;42.20;14.45;;;;;;;10.13;95.78;98346.03;4483357;31;20076;-68
2023/03/24 06:17:36;;;;;;;38.92;13.80;;;;;;;10.23;95.27;98350.41;4484954;31;20097;-68
2023/03/24 06:20:12;;;;;;;30.42;14.07;;;;;;;10.36;94.29;98355.34;4484364;31;20192;-68
2023/03/24 06:22:46;;;;;;;24.23;13.62;;;;;;;10.50;93.51;98351.41;4483942;31;20096;-68
2023/03/24 06:25:15;;;;;;;29.92;13.90;;;;;;;10.57;91.08;98350.66;4484677;31;20460;-68
2023/03/24 06:27:47;;;;;;;26.12;14.38;;;;;;;10.73;91.82;98346.56;4480123;32;20088;-69
2023/03/24 06:30:17;;;;;;;32.45;13.32;;;;;;;10.95;90.99;98347.94;4480465;31;20096;-69
2023/03/24 06:32:45;;;;;;;26.08;14.35;;;;;;;11.04;88.89;98356.66;4477970;31;20111;-69
2023/03/24 06:35:14;;;;;;;37.22;13.32;;;;;;;11.19;89.84;98353.38;4483743;31;20104;-69
2023/03/24 06:37:42;;;;;;;33.38;14.27;;;;;;;11.40;86.76;98354.84;4482001;31;20118;-69
2023/03/24 06:40:14;;;;;;;67.20;16.67;;;;;;;11.57;86.55;98354.94;4483380;31;20151;-68
2023/03/24 06:42:41;;;;;;;33.28;13.60;;;;;;;11.81;86.33;98349.88;4479804;32;20571;-69
2023/03/24 06:45:09;;;;;;;41.95;14.27;;;;;;;11.84;84.58;98339.06;4482987;31;20617;-69
2023/03/24 06:47:36;;;;;;;58.35;14.02;;;;;;;11.84;84.37;98349.56;4481545;31;20096;-69
2023/03/24 06:50:06;;;;;;;35.42;12.45;;;;;;;11.76;80.65;98336.38;4469466;32;20116;-68
2023/03/24 06:52:34;;;;;;;24.42;11.32;;;;;;;11.98;82.64;98339.50;4481422;31;20104;-67
2023/03/24 06:55:03;;;;;;;31.60;11.48;;;;;;;12.37;79.73;98331.09;4482121;32;20127;-66
2023/03/24 06:57:30;;;;;;;19.73;10.70;;;;;;;12.60;78.20;98332.16;4484305;31;20441;-67
2023/03/24 07:00:04;;;;;;;30.20;12.05;;;;;;;12.81;76.04;98328.28;4468305;31;20097;-66
2023/03/24 07:02:34;;;;;;;22.13;10.93;;;;;;;13.04;75.59;98330.25;4466759;31;20496;-67
2023/03/24 07:05:07;;;;;;;18.12;10.52;;;;;;;13.29;74.91;98326.66;4466626;31;20164;-66
2023/03/24 07:07:36;;;;;;;18.73;10.90;;;;;;;13.45;72.03;98325.00;4469282;31;20097;-66
2023/03/24 07:10:07;;;;;;;17.42;10.73;;;;;;;13.68;73.16;98326.94;4465656;31;20101;-68
2023/03/24 07:12:37;;;;;;;18.98;9.95;;;;;;;13.87;71.41;98336.25;4471758;31;20461;-68
2023/03/24 07:15:06;;;;;;;15.23;8.77;;;;;;;14.13;68.95;98346.56;4466594;31;20437;-68
2023/03/24 07:17:33;;;;;;;18.70;7.75;;;;;;;14.25;68.49;98342.56;4469755;31;20136;-66
2023/03/24 07:20:06;;;;;;;16.23;9.35;;;;;;;14.38;68.56;98332.31;4469040;31;20089;-67
2023/03/24 07:22:36;;;;;;;14.60;8.02;;;;;;;14.50;66.62;98330.09;4469925;31;20099;-66
2023/03/24 07:25:07;;;;;;;16.98;9.45;;;;;;;14.51;67.63;98330.91;4468087;31;20163;-66
2023/03/24 07:27:36;;;;;;;12.93;7.82;;;;;;;14.45;64.71;98326.34;4466786;32;20097;-67
2023/03/24 07:30:08;;;;;;;22.75;7.62;;;;;;;14.48;63.03;98326.81;4468539;31;20097;-67
2023/03/24 07:32:38;;;;;;;24.63;8.35;;;;;;;14.63;64.96;98320.84;4467822;31;20100;-67
2023/03/24 07:35:07;;;;;;;16.98;9.30;;;;;;;14.77;65.88;98319.25;4467659;31;20093;-68
2023/03/24 07:37:34;;;;;;;39.67;9.80;;;;;;;15.00;64.76;98325.34;4470142;31;20117;-67
2023/03/24 07:40:10;;;;;;;13.75;7.97;;;;;;;14.95;62.48;98322.44;4464978;31;20164;-66
2023/03/24 07:42:40;;;;;;;28.17;10.50;;;;;;;15.03;62.47;98332.09;4469738;31;20100;-65
2023/03/24 07:45:10;;;;;;;25.30;9.15;;;;;;;15.21;66.68;98322.03;4474026;31;20083;-66
2023/03/24 07:47:38;;;;;;;14.27;6.75;;;;;;;15.49;63.64;98332.06;4470363;31;20104;-66
2023/03/24 07:50:09;;;;;;;10.93;6.95;;;;;;;15.33;61.77;98334.84;4467254;31;20088;-66
2023/03/24 07:52:39;;;;;;;10.23;6.72;;;;;;;15.61;63.39;98329.78;4467134;31;20091;-66
2023/03/24 07:55:10;;;;;;;14.77;8.65;;;;;;;15.61;61.06;98335.06;4470231;31;20080;-67
2023/03/24 07:57:47;;;;;;;19.65;9.32;;;;;;;15.43;65.95;98341.50;4474165;31;20095;-67
2023/03/24 08:00:18;;;;;;;17.55;9.70;;;;;;;15.55;61.62;98333.16;4470959;31;20161;-67
2023/03/24 08:02:48;;;;;;;15.45;8.48;;;;;;;15.81;65.14;98331.94;4471475;31;20104;-67
2023/03/24 08:05:18;;;;;;;16.70;7.80;;;;;;;16.07;64.87;98337.56;4471487;31;20988;-66
2023/03/24 08:07:54;;;;;;;13.23;7.87;;;;;;;15.90;62.55;98338.78;4464095;31;20517;-67
2023/03/24 08:10:27;;;;;;;13.05;9.05;;;;;;;15.93;62.74;98341.06;4467755;31;20446;-67
2023/03/24 08:12:55;;;;;;;12.48;8.63;;;;;;;15.88;64.41;98327.56;4472631;31;20116;-67
2023/03/24 08:15:23;;;;;;;14.13;8.73;;;;;;;15.94;59.31;98327.66;4470024;31;20488;-68
2023/03/24 08:17:50;;;;;;;16.77;10.15;;;;;;;15.90;62.93;98321.09;4470524;31;20574;-68
2023/03/24 08:20:20;;;;;;;14.32;8.02;;;;;;;15.68;63.12;98317.50;4469957;31;20558;-69
2023/03/24 08:22:48;;;;;;;17.40;9.43;;;;;;;15.57;63.83;98316.13;4470415;31;20097;-69
2023/03/24 08:25:17;;;;;;;16.85;8.70;;;;;;;15.79;65.34;98314.44;4466213;31;20115;-67
2023/03/24 08:27:46;;;;;;;17.08;9.50;;;;;;;16.07;64.21;98299.78;4475499;31;20185;-66
2023/03/24 08:30:16;;;;;;;19.92;9.65;;;;;;;16.39;62.57;98290.59;4471222;31;20201;-66
2023/03/24 08:32:45;;;;;;;45.67;11.00;;;;;;;16.46;61.66;98288.84;4469541;32;20104;-66
2023/03/24 08:35:16;;;;;;;18.00;10.50;;;;;;;16.30;61.48;98273.19;4474526;31;20719;-70
2023/03/24 08:37:45;;;;;;;22.67;9.35;;;;;;;15.95;62.13;98284.38;4476304;31;20135;-67
2023/03/24 08:40:18;;;;;;;15.98;8.70;;;;;;;16.08;64.65;98286.37;4473987;31;20116;-68
2023/03/24 08:42:50;;;;;;;14.07;9.90;;;;;;;16.32;63.24;98282.59;4475638;31;20114;-68
2023/03/24 08:45:20;;;;;;;34.22;9.43;;;;;;;16.38;61.73;98283.69;4467790;31;20120;-68
2023/03/24 08:47:49;;;;;;;14.15;9.55;;;;;;;16.03;60.47;98274.72;4470530;31;20123;-69
2023/03/24 08:50:19;;;;;;;14.00;8.45;;;;;;;15.95;60.71;98276.44;4476132;31;20115;-67
2023/03/24 08:52:47;;;;;;;12.63;8.68;;;;;;;15.78;63.73;98282.94;4471638;31;20172;-67
2023/03/24 08:55:16;;;;;;;14.30;8.63;;;;;;;15.78;65.65;98283.75;4469770;32;20130;-66
2023/03/24 08:57:44;;;;;;;13.05;8.52;;;;;;;16.18;65.02;98288.72;4476138;31;20135;-66
2023/03/24 09:00:13;;;;;;;11.52;8.27;;;;;;;16.43;65.91;98289.22;4468104;31;20737;-66
2023/03/24 09:02:42;;;;;;;24.90;9.32;;;;;;;16.60;62.80;98283.69;4473306;31;20582;-67
2023/03/24 09:05:10;;;;;;;13.93;8.32;;;;;;;16.66;64.21;98281.09;4473362;32;20092;-67
2023/03/24 09:07:37;;;;;;;17.35;9.48;;;;;;;16.60;62.11;98273.94;4475766;31;20093;-67
2023/03/24 09:10:06;;;;;;;21.05;9.95;;;;;;;16.70;64.21;98272.78;4468858;31;20150;-67
2023/03/24 09:12:34;;;;;;;17.10;9.55;;;;;;;16.92;61.95;98268.38;4467835;31;20139;-66
2023/03/24 09:15:05;;;;;;;15.93;8.95;;;;;;;16.60;64.09;98281.06;4471073;31;20161;-67
2023/03/24 09:17:33;;;;;;;16.30;9.00;;;;;;;16.91;63.58;98279.94;4474124;31;20089;-67
2023/03/24 09:20:00;;;;;;;13.77;9.15;;;;;;;16.81;61.60;98275.75;4472810;31;20109;-67
2023/03/24 09:22:28;;;;;;;18.70;9.50;;;;;;;16.67;62.17;98279.31;4468725;31;20142;-68
2023/03/24 09:24:55;;;;;;;48.60;10.52;;;;;;;16.76;63.19;98278.16;4471046;31;20539;-68
2023/03/24 09:27:23;;;;;;;22.05;9.05;;;;;;;16.99;61.33;98271.87;4470019;31;20117;-67
2023/03/24 09:29:52;;;;;;;13.88;9.32;;;;;;;17.03;63.64;98262.53;4474254;31;20156;-67
2023/03/24 09:32:20;;;;;;;19.48;9.15;;;;;;;16.80;62.79;98260.88;4472924;31;20140;-66
2023/03/24 09:34:47;;;;;;;13.45;9.15;;;;;;;17.12;63.16;98266.72;4471534;31;20134;-67
2023/03/24 09:37:14;;;;;;;21.33;9.25;;;;;;;17.34;62.10;98254.22;4471320;31;20228;-66
2023/03/24 09:39:41;;;;;;;18.25;9.95;;;;;;;17.72;62.39;98256.50;4469336;32;20108;-66
2023/03/24 09:42:17;;;;;;;15.40;8.48;;;;;;;17.90;58.64;98253.34;4466493;32;20096;-66
2023/03/24 09:44:47;;;;;;;14.93;9.77;;;;;;;18.10;60.30;98244.66;4469702;32;20151;-66
2023/03/24 09:47:40;;;;;;;20.35;9.55;;;;;;;17.94;61.40;98253.78;4466990;31;20135;-66
2023/03/24 09:50:19;;;;;;;15.70;9.88;;;;;;;18.03;61.04;98251.78;4468328;32;20802;-66
2023/03/24 09:52:53;;;;;;;14.63;8.63;;;;;;;18.25;59.24;98240.03;4460478;32;20459;-65
2023/03/24 09:55:24;;;;;;;15.98;9.93;;;;;;;18.54;58.52;98240.69;4467086;31;20144;-67
2023/03/24 09:57:53;;;;;;;13.40;8.25;;;;;;;18.85;56.69;98249.09;4468155;31;20148;-66
2023/03/24 10:00:22;;;;;;;17.98;8.35;;;;;;;18.94;56.25;98235.47;4474916;31;20735;-66
2023/03/24 10:02:50;;;;;;;16.00;8.68;;;;;;;18.92;57.69;98237.50;4469488;31;20161;-66
2023/03/24 10:05:34;;;;;;;13.38;8.63;;;;;;;19.26;56.71;98229.53;4470367;32;20096;-66
2023/03/24 10:08:14;;;;;;;533.87;38.45;;;;;;;19.49;59.30;98235.19;4465721;31;20516;-66
2023/03/24 10:10:44;;;;;;;19.48;8.63;;;;;;;19.57;55.28;98228.84;4464126;32;20118;-67
2023/03/24 10:13:20;;;;;;;11.40;5.20;;;;;;;19.82;52.50;98214.91;4473105;31;20088;-66
2023/03/24 10:15:56;;;;;;;11.50;4.93;;;;;;;19.76;52.52;98202.44;4470326;31;20726;-66
2023/03/24 10:18:42;;;;;;;10.30;5.32;;;;;;;19.92;54.76;98204.63;4469069;32;20116;-67
2023/03/24 10:21:27;;;;;;;12.45;5.25;;;;;;;20.46;51.46;98205.16;4467257;32;20084;-67
2023/03/24 10:24:41;;;;;;;9.68;4.57;;;;;;;20.59;50.68;98200.78;4471672;31;20408;-67
2023/03/24 10:27:22;;;;;;;12.37;4.50;;;;;;;20.81;48.10;98210.06;4457192;32;20109;-67
2023/03/24 10:30:03;;;;;;;8.82;4.57;;;;;;;20.78;48.09;98199.03;4459436;32;20215;-67
2023/03/24 10:32:32;;;;;;;7.57;4.25;;;;;;;20.84;47.64;98190.97;4449821;32;20116;-67
2023/03/24 10:35:08;;;;;;;8.00;4.32;;;;;;;20.82;46.42;98194.91;4449240;32;20160;-66
2023/03/24 10:37:37;;;;;;;17.95;4.65;;;;;;;20.68;48.45;98194.19;4446287;32;20695;-67
2023/03/24 10:40:15;;;;;;;10.98;4.50;;;;;;;20.69;47.88;98198.47;4459548;32;20154;-67
2023/03/24 10:42:44;;;;;;;11.65;5.00;;;;;;;20.77;49.45;98194.72;4459040;32;20178;-68
2023/03/24 10:45:40;;;;;;;8.88;4.43;;;;;;;20.80;46.60;98191.62;4461989;32;20135;-67
2023/03/24 10:48:08;;;;;;;7.65;4.25;;;;;;;20.86;47.28;98186.28;4460572;32;20138;-68
2023/03/24 10:50:42;;;;;;;6.75;3.92;;;;;;;20.96;46.24;98190.28;4448646;32;20164;-67
2023/03/24 10:53:17;;;;;;;8.50;4.30;;;;;;;20.81;46.02;98182.62;4462160;32;20196;-66
2023/03/24 10:55:46;;;;;;;9.57;4.55;;;;;;;20.68;47.40;98178.22;4460199;32;20139;-66
2023/03/24 10:58:36;;;;;;;14.95;4.57;;;;;;;20.84;45.53;98192.84;4461166;32;20104;-67
2023/03/24 11:01:23;;;;;;;9.00;4.30;;;;;;;20.91;46.70;98185.63;4458564;32;20791;-67
2023/03/24 11:03:51;;;;;;;10.23;4.40;;;;;;;21.09;46.53;98180.31;4466383;31;20104;-67
2023/03/24 11:06:20;;;;;;;9.95;4.25;;;;;;;21.06;43.75;98177.25;4469561;31;20180;-67
2023/03/24 11:09:26;;;;;;;15.18;5.05;;;;;;;21.15;44.32;98169.81;4480556;31;20104;-67
2023/03/24 11:11:53;;;;;;;10.70;4.35;;;;;;;21.17;44.22;98175.75;4482228;31;20097;-66
2023/03/24 11:14:26;;;;;;;10.23;4.57;;;;;;;21.34;44.40;98162.66;4482416;31;20552;-67
2023/03/24 11:17:16;;;;;;;9.05;4.35;;;;;;;21.36;42.56;98158.75;4481681;31;20080;-65
2023/03/24 11:19:52;;;;;;;8.77;3.80;;;;;;;21.27;44.52;98149.37;4481104;31;20088;-67
2023/03/24 11:22:19;;;;;;;12.37;4.03;;;;;;;21.33;43.60;98147.69;4477658;32;20135;-66
2023/03/24 11:24:51;;;;;;;8.00;3.62;;;;;;;21.34;43.36;98149.34;4479453;31;20132;-67
2023/03/24 11:27:18;;;;;;;6.47;3.33;;;;;;;21.51;42.73;98138.91;4478792;31;20138;-66
2023/03/24 11:29:53;;;;;;;6.18;3.15;;;;;;;21.65;42.00;98135.06;4482026;31;20131;-64
2023/03/24 11:32:26;;;;;;;8.38;2.50;;;;;;;21.70;39.93;98135.19;4482213;31;20092;-66
2023/03/24 11:35:02;;;;;;;7.65;2.40;;;;;;;21.56;39.27;98128.38;4477397;31;20097;-67
2023/03/24 11:37:33;;;;;;;6.55;2.42;;;;;;;21.81;40.19;98130.94;4477903;32;20129;-66
2023/03/24 11:40:08;;;;;;;4.00;2.12;;;;;;;21.85;40.04;98128.63;4476896;31;20127;-66
2023/03/24 11:42:59;;;;;;;5.37;2.42;;;;;;;21.80;38.81;98116.81;4474645;32;20088;-66
2023/03/24 11:45:35;;;;;;;4.68;2.03;;;;;;;22.01;40.85;98116.53;4477935;31;20163;-66
2023/03/24 11:48:29;;;;;;;6.25;2.45;;;;;;;22.08;37.83;98107.38;4479947;31;20105;-67